Time;durP1;ratioP1;P1;durP2;ratioP2;P2;SDS_P1;SDS_P2;PMS_P1;PMS_P2;Temp;Humidity;BMP_temperature;BMP_pressure;BME280_temperature;BME280_humidity;BME280_pressure;Samples;Min_cycle;Max_cycle;Signal;HPM_P1;HPM_P2
2021/07/24 00:00:57;;;;;;;2.65;2.38;;;25.80;44.00;;;;;;5052801;28;20028;-57
2021/07/24 00:03:23;;;;;;;3.08;2.70;;;25.80;44.00;;;;;;5053265;28;20051;-61
2021/07/24 00:05:50;;;;;;;2.90;2.30;;;25.80;44.00;;;;;;5050718;28;20348;-62
2021/07/24 00:08:16;;;;;;;2.67;2.25;;;25.80;44.00;;;;;;5052948;28;20132;-61
2021/07/24 00:10:41;;;;;;;2.83;2.58;;;25.80;44.10;;;;;;5052805;28;20112;-61
2021/07/24 00:13:07;;;;;;;3.15;2.20;;;25.80;44.10;;;;;;5052184;28;20029;-60
2021/07/24 00:15:33;;;;;;;2.10;1.90;;;25.80;44.10;;;;;;5053263;28;20021;-60
2021/07/24 00:17:59;;;;;;;2.65;2.45;;;25.80;44.10;;;;;;5052727;28;20122;-60
2021/07/24 00:20:25;;;;;;;2.67;2.17;;;25.80;44.20;;;;;;5051961;28;20385;-59
2021/07/24 00:22:51;;;;;;;2.40;2.20;;;25.80;44.20;;;;;;5050619;28;20048;-59
2021/07/24 00:25:17;;;;;;;2.15;1.83;;;25.70;44.20;;;;;;5048272;28;20057;-60
2021/07/24 00:27:42;;;;;;;3.17;2.78;;;25.70;44.20;;;;;;5032425;28;20025;-60
2021/07/24 00:30:09;;;;;;;2.42;2.22;;;25.70;44.30;;;;;;5035598;28;20403;-60
2021/07/24 00:32:36;;;;;;;2.45;2.25;;;25.70;44.30;;;;;;5033491;28;20070;-60
2021/07/24 00:35:02;;;;;;;2.47;2.10;;;25.70;44.30;;;;;;5048658;28;20060;-61
2021/07/24 00:37:29;;;;;;;2.40;2.15;;;25.70;44.40;;;;;;5051618;28;20037;-62
2021/07/24 00:39:55;;;;;;;2.90;2.30;;;25.70;44.40;;;;;;5015798;28;20360;-61
2021/07/24 00:42:26;;;;;;;2.60;2.10;;;25.60;44.40;;;;;;5052701;28;20029;-59
2021/07/24 00:44:57;;;;;;;2.38;2.00;;;25.70;44.50;;;;;;5034576;28;20100;-62
2021/07/24 00:47:28;;;;;;;2.75;2.30;;;25.70;44.50;;;;;;5052647;28;20447;-61
2021/07/24 00:50:02;;;;;;;2.50;2.20;;;25.60;44.50;;;;;;5034248;28;20033;-61
2021/07/24 00:52:30;;;;;;;2.90;2.42;;;25.60;44.60;;;;;;5047630;28;20448;-61
2021/07/24 00:54:56;;;;;;;2.50;2.22;;;25.60;44.60;;;;;;5051090;28;20028;-61
2021/07/24 00:57:21;;;;;;;2.95;2.58;;;25.60;44.60;;;;;;5050055;28;20415;-60
2021/07/24 00:59:47;;;;;;;2.67;2.33;;;25.60;45.00;;;;;;5031556;28;20486;-61
2021/07/24 01:02:13;;;;;;;2.28;2.05;;;25.60;44.60;;;;;;5032627;28;20467;-62
2021/07/24 01:04:40;;;;;;;2.65;2.30;;;25.60;44.70;;;;;;5051913;28;20040;-59
2021/07/24 01:07:08;;;;;;;2.35;2.15;;;25.60;44.70;;;;;;5014991;28;20046;-60
2021/07/24 01:09:35;;;;;;;3.00;2.42;;;25.60;44.70;;;;;;5033363;28;20440;-61
2021/07/24 01:12:02;;;;;;;2.53;2.20;;;25.60;44.70;;;;;;5033911;28;20031;-58
2021/07/24 01:14:31;;;;;;;2.38;2.17;;;25.60;44.70;;;;;;5031478;28;20021;-61
2021/07/24 01:16:57;;;;;;;2.50;2.00;;;25.50;44.70;;;;;;5033761;28;20502;-60
2021/07/24 01:19:28;;;;;;;2.50;2.30;;;25.50;44.70;;;;;;5031565;28;20028;-60
2021/07/24 01:21:55;;;;;;;2.20;2.00;;;25.50;44.70;;;;;;5051576;28;20025;-61
2021/07/24 01:24:22;;;;;;;2.40;2.10;;;25.50;44.70;;;;;;5033969;28;20021;-59
2021/07/24 01:26:49;;;;;;;2.25;2.05;;;25.50;44.70;;;;;;5032976;28;20394;-59
2021/07/24 01:29:20;;;;;;;2.30;2.10;;;25.50;44.70;;;;;;5048217;28;20036;-60
2021/07/24 01:31:48;;;;;;;2.53;2.30;;;25.50;44.80;;;;;;5032130;28;20128;-61
2021/07/24 01:34:16;;;;;;;2.65;2.35;;;25.50;44.80;;;;;;5033755;28;20036;-60
2021/07/24 01:36:42;;;;;;;2.63;2.28;;;25.50;44.80;;;;;;5031005;28;20017;-59
2021/07/24 01:39:09;;;;;;;2.70;2.10;;;25.50;44.90;;;;;;5033655;28;20099;-59
2021/07/24 01:41:43;;;;;;;3.00;2.33;;;25.40;44.80;;;;;;5033382;28;20457;-61
2021/07/24 01:44:10;;;;;;;2.80;2.10;;;25.40;44.80;;;;;;5032957;28;20028;-59
2021/07/24 01:46:36;;;;;;;2.25;2.00;;;25.40;45.50;;;;;;5033989;28;20341;-58
2021/07/24 01:54:56;;;;;;;2.10;1.92;;;25.40;44.90;;;;;;5051277;28;20026;-61
2021/07/24 01:57:23;;;;;;;2.45;2.13;;;25.40;45.00;;;;;;5032338;28;20356;-60
2021/07/24 02:00:10;;;;;;;2.70;2.25;;;25.40;45.00;;;;;;5030557;28;20029;-61
2021/07/24 02:02:52;;;;;;;2.30;1.90;;;25.40;45.00;;;;;;5050113;28;20499;-61
2021/07/24 02:05:46;;;;;;;2.08;1.88;;;25.40;45.00;;;;;;5032325;28;20039;-61
2021/07/24 02:08:19;;;;;;;2.30;2.10;;;25.40;45.00;;;;;;5031755;28;20151;-60
2021/07/24 02:10:45;;;;;;;2.42;2.20;;;25.40;45.10;;;;;;5049558;28;20029;-58
2021/07/24 02:13:14;;;;;;;2.30;2.10;;;25.30;45.00;;;;;;5026411;28;20345;-60
2021/07/24 02:15:40;;;;;;;2.40;2.20;;;25.30;45.00;;;;;;5049304;28;20036;-59
2021/07/24 02:18:07;;;;;;;2.13;1.92;;;25.30;45.00;;;;;;5051523;28;20057;-61
2021/07/24 02:20:34;;;;;;;1.98;1.77;;;25.30;45.10;;;;;;5050602;28;20033;-59
2021/07/24 02:23:01;;;;;;;2.50;2.20;;;25.30;45.10;;;;;;5030492;28;20036;-60
2021/07/24 02:25:28;;;;;;;2.28;1.98;;;25.30;45.10;;;;;;5029158;28;20036;-59
2021/07/24 02:27:54;;;;;;;2.30;1.98;;;25.30;45.20;;;;;;5032443;28;20033;-62
2021/07/24 02:30:20;;;;;;;2.80;2.00;;;25.30;45.20;;;;;;5033137;28;20037;-62
2021/07/24 02:32:46;;;;;;;2.33;2.08;;;25.30;45.20;;;;;;5032861;28;20498;-60
2021/07/24 02:35:13;;;;;;;2.17;1.92;;;25.30;45.20;;;;;;5033814;28;20032;-61
2021/07/24 02:37:57;;;;;;;1.92;1.67;;;25.30;45.20;;;;;;5031385;28;20464;-60
2021/07/24 02:40:24;;;;;;;2.53;1.98;;;25.30;45.20;;;;;;5029926;28;20034;-60
2021/07/24 02:43:04;;;;;;;2.33;2.13;;;25.30;45.30;;;;;;5033486;28;20134;-61
2021/07/24 02:45:30;;;;;;;2.63;2.30;;;25.20;45.20;;;;;;5051001;28;20029;-61
2021/07/24 02:47:56;;;;;;;2.25;1.98;;;25.30;45.30;;;;;;5034654;28;20116;-58
2021/07/24 02:50:22;;;;;;;2.42;2.22;;;25.20;45.20;;;;;;5054912;28;20125;-61
2021/07/24 02:52:48;;;;;;;2.75;2.03;;;25.20;45.20;;;;;;5034307;28;20024;-60
2021/07/24 02:55:13;;;;;;;2.72;2.20;;;25.20;45.20;;;;;;5031338;28;20021;-59
2021/07/24 02:57:40;;;;;;;2.80;2.28;;;25.20;45.30;;;;;;5036309;28;20163;-60
2021/07/24 03:00:07;;;;;;;2.50;2.05;;;25.20;45.30;;;;;;5034591;28;20027;-58
2021/07/24 03:02:32;;;;;;;2.28;2.05;;;25.20;45.30;;;;;;5054412;28;20455;-63
2021/07/24 03:04:58;;;;;;;2.05;1.80;;;25.20;45.30;;;;;;5052243;28;20029;-60
2021/07/24 03:07:24;;;;;;;2.63;2.30;;;25.20;45.30;;;;;;5054149;28;20075;-57
2021/07/24 03:09:50;;;;;;;2.53;2.15;;;25.20;45.30;;;;;;5050426;28;20045;-59
2021/07/24 03:12:17;;;;;;;2.10;1.90;;;25.20;45.40;;;;;;5053565;28;20021;-60
2021/07/24 03:14:44;;;;;;;2.38;1.90;;;25.20;45.40;;;;;;5052815;28;20029;-58
2021/07/24 03:17:10;;;;;;;2.63;1.95;;;25.20;45.40;;;;;;5051596;28;20032;-59
2021/07/24 03:19:36;;;;;;;2.58;1.90;;;25.10;45.40;;;;;;5054323;28;20024;-58
2021/07/24 03:22:01;;;;;;;2.20;2.00;;;25.20;45.40;;;;;;5054007;28;20086;-61
2021/07/24 03:24:27;;;;;;;2.90;2.28;;;25.10;45.40;;;;;;5051807;28;20078;-60
2021/07/24 03:26:53;;;;;;;2.58;2.15;;;25.10;45.40;;;;;;5051716;28;20395;-62
2021/07/24 03:29:19;;;;;;;2.03;1.88;;;25.10;45.40;;;;;;5052851;28;20021;-58
2021/07/24 03:31:45;;;;;;;2.30;2.10;;;25.10;45.40;;;;;;5053861;28;20036;-61
2021/07/24 03:34:11;;;;;;;2.17;1.90;;;25.10;45.40;;;;;;5036847;28;20348;-61
2021/07/24 03:36:37;;;;;;;2.58;2.38;;;25.10;45.40;;;;;;5054412;28;20435;-59
2021/07/24 03:39:03;;;;;;;2.15;1.95;;;25.10;45.40;;;;;;5054558;28;20033;-60
2021/07/24 03:41:28;;;;;;;2.47;2.10;;;25.10;45.40;;;;;;5054566;28;20033;-60
2021/07/24 03:43:54;;;;;;;1.90;1.77;;;25.10;45.50;;;;;;5053997;28;20025;-60
2021/07/24 03:46:21;;;;;;;2.38;1.98;;;25.10;45.50;;;;;;5052530;28;20021;-61
2021/07/24 03:48:48;;;;;;;3.00;2.65;;;25.10;45.50;;;;;;5055120;28;20037;-62
2021/07/24 03:51:15;;;;;;;2.60;2.40;;;25.10;45.50;;;;;;5054168;28;20033;-60
2021/07/24 03:53:41;;;;;;;1.95;1.75;;;25.10;45.60;;;;;;5054292;28;20029;-59
2021/07/24 03:56:18;;;;;;;2.00;1.80;;;25.10;45.60;;;;;;5036939;28;20029;-59
2021/07/24 03:58:46;;;;;;;2.40;1.83;;;25.10;45.50;;;;;;5054217;28;20043;-56
2021/07/24 04:01:12;;;;;;;2.08;1.88;;;25.00;45.50;;;;;;5051175;28;20040;-60
2021/07/24 04:03:38;;;;;;;2.30;2.10;;;25.00;45.50;;;;;;5037066;28;20021;-59
2021/07/24 04:06:07;;;;;;;2.17;1.88;;;25.00;45.50;;;;;;5054880;28;20124;-59
2021/07/24 04:08:34;;;;;;;2.28;2.08;;;25.10;45.60;;;;;;5054162;28;20036;-60
2021/07/24 04:11:01;;;;;;;2.08;1.88;;;25.00;45.60;;;;;;5052838;28;20074;-61
2021/07/24 04:13:26;;;;;;;2.50;2.00;;;25.00;45.60;;;;;;5054778;28;20129;-61
2021/07/24 04:15:52;;;;;;;2.13;1.92;;;25.10;45.70;;;;;;5053713;28;20053;-56
2021/07/24 04:18:24;;;;;;;2.42;2.22;;;25.00;45.60;;;;;;5054495;28;20044;-63
2021/07/24 04:20:49;;;;;;;1.83;1.60;;;25.00;45.60;;;;;;5052031;28;20122;-62
2021/07/24 04:23:15;;;;;;;1.63;1.52;;;25.00;45.60;;;;;;5054182;28;20052;-61
2021/07/24 04:25:41;;;;;;;2.10;1.83;;;25.00;46.30;;;;;;5053728;28;20020;-55
2021/07/24 04:28:07;;;;;;;2.28;1.95;;;25.00;45.60;;;;;;5053985;28;20029;-59
2021/07/24 04:30:34;;;;;;;1.77;1.67;;;25.00;45.70;;;;;;5054269;28;20037;-59
2021/07/24 04:33:00;;;;;;;1.98;1.75;;;25.00;45.70;;;;;;5054227;28;20455;-59
2021/07/24 04:35:26;;;;;;;2.35;2.00;;;25.00;45.70;;;;;;5054029;28;20017;-61
2021/07/24 04:37:51;;;;;;;2.83;1.90;;;25.00;45.70;;;;;;5054291;28;20453;-61
2021/07/24 04:40:17;;;;;;;2.10;1.88;;;25.00;45.70;;;;;;5053599;28;20041;-58
2021/07/24 04:42:43;;;;;;;2.03;1.80;;;25.00;45.70;;;;;;5053462;28;20086;-60
2021/07/24 04:45:09;;;;;;;1.98;1.77;;;25.00;45.70;;;;;;5053425;28;20025;-59
2021/07/24 04:47:35;;;;;;;3.25;1.70;;;25.00;45.80;;;;;;5053956;28;20455;-59
2021/07/24 04:50:01;;;;;;;1.70;1.60;;;25.00;45.80;;;;;;5053753;28;20056;-60
2021/07/24 04:52:29;;;;;;;2.10;1.90;;;25.00;45.80;;;;;;5053480;28;20466;-60
2021/07/24 04:54:57;;;;;;;1.90;1.67;;;25.00;45.80;;;;;;5053634;28;20387;-59
2021/07/24 04:57:24;;;;;;;2.10;1.90;;;25.00;45.80;;;;;;5053571;28;20348;-60
2021/07/24 04:59:51;;;;;;;2.40;1.95;;;25.00;45.80;;;;;;5052733;28;20044;-61
2021/07/24 05:02:19;;;;;;;1.77;1.58;;;25.00;45.80;;;;;;5033902;28;20024;-58
2021/07/24 05:04:47;;;;;;;1.90;1.73;;;25.00;45.80;;;;;;5035199;28;20021;-59
2021/07/24 05:07:15;;;;;;;2.88;2.42;;;25.00;45.80;;;;;;5052640;28;20032;-61
2021/07/24 05:09:42;;;;;;;1.80;1.70;;;25.00;45.80;;;;;;5053043;28;20029;-60
2021/07/24 05:12:08;;;;;;;2.13;1.80;;;25.00;45.90;;;;;;5053206;28;20099;-60
2021/07/24 05:14:35;;;;;;;2.20;1.85;;;25.00;45.90;;;;;;5052748;28;20468;-58
2021/07/24 05:17:09;;;;;;;2.00;1.80;;;25.00;45.90;;;;;;5052724;28;20021;-61
2021/07/24 05:19:36;;;;;;;2.20;2.00;;;25.00;45.90;;;;;;5053135;28;20040;-60
2021/07/24 05:22:03;;;;;;;2.20;1.98;;;25.00;45.90;;;;;;5053005;28;20028;-60
2021/07/24 05:24:29;;;;;;;1.88;1.70;;;25.00;45.90;;;;;;5052592;28;20021;-60
2021/07/24 05:26:54;;;;;;;2.15;1.77;;;25.00;45.90;;;;;;5050779;28;20078;-60
2021/07/24 05:29:20;;;;;;;2.45;1.95;;;25.00;45.90;;;;;;5052615;28;20114;-60
2021/07/24 05:31:46;;;;;;;2.42;2.17;;;25.00;45.90;;;;;;5052085;28;20040;-57
2021/07/24 05:34:12;;;;;;;1.90;1.70;;;25.00;45.90;;;;;;5052124;28;20033;-61
2021/07/24 05:36:37;;;;;;;2.58;2.20;;;25.00;45.90;;;;;;5052673;28;20028;-60
2021/07/24 05:39:03;;;;;;;2.20;1.80;;;25.00;45.90;;;;;;5050653;28;20116;-61
2021/07/24 05:41:29;;;;;;;2.30;2.00;;;25.00;45.90;;;;;;5052620;28;20343;-59
2021/07/24 05:43:55;;;;;;;2.10;1.90;;;25.00;46.00;;;;;;5052906;28;20424;-61
2021/07/24 05:46:20;;;;;;;2.22;2.03;;;25.00;46.00;;;;;;5053018;28;20033;-60
2021/07/24 05:48:46;;;;;;;2.35;2.10;;;25.00;46.00;;;;;;5052042;28;20115;-62
2021/07/24 05:51:12;;;;;;;1.92;1.70;;;25.00;46.00;;;;;;5050384;28;20036;-60
2021/07/24 05:53:38;;;;;;;2.70;2.08;;;25.00;46.00;;;;;;5052068;28;20586;-60
2021/07/24 05:56:04;;;;;;;2.60;1.92;;;25.00;46.00;;;;;;5053025;28;20094;-58
2021/07/24 05:58:30;;;;;;;2.40;2.10;;;25.00;46.00;;;;;;5052716;28;20043;-59
2021/07/24 06:00:56;;;;;;;2.30;2.10;;;25.00;46.00;;;;;;5034249;28;20025;-57
2021/07/24 06:03:22;;;;;;;2.40;2.08;;;25.00;46.10;;;;;;5051624;28;20047;-58
2021/07/24 06:05:48;;;;;;;2.22;1.98;;;25.00;46.10;;;;;;5052730;28;20421;-60
2021/07/24 06:08:14;;;;;;;1.98;1.77;;;25.00;46.10;;;;;;5051764;28;20060;-60
2021/07/24 06:10:39;;;;;;;2.13;1.88;;;25.00;46.70;;;;;;5034676;28;20102;-60
2021/07/24 06:13:06;;;;;;;2.65;2.00;;;25.00;46.10;;;;;;5051607;28;20108;-60
2021/07/24 06:15:31;;;;;;;2.47;2.10;;;25.00;46.10;;;;;;5052072;28;20056;-60
2021/07/24 06:17:57;;;;;;;1.77;1.65;;;25.00;46.10;;;;;;5036424;28;20032;-61
2021/07/24 06:20:23;;;;;;;1.90;1.70;;;25.00;46.10;;;;;;5056154;28;20039;-60
2021/07/24 06:22:49;;;;;;;3.03;2.33;;;25.10;46.20;;;;;;5038487;28;20021;-59
2021/07/24 06:25:15;;;;;;;3.45;1.90;;;25.10;46.20;;;;;;5055547;28;20025;-62
2021/07/24 06:27:41;;;;;;;2.40;2.13;;;25.10;46.20;;;;;;5038359;28;20352;-60
2021/07/24 06:30:09;;;;;;;2.10;1.90;;;25.10;46.20;;;;;;5056487;28;20551;-62
2021/07/24 06:32:35;;;;;;;2.20;2.00;;;25.10;46.20;;;;;;5056267;28;20082;-59
2021/07/24 06:35:01;;;;;;;2.72;1.88;;;25.10;46.20;;;;;;5055747;28;20488;-60
2021/07/24 06:37:26;;;;;;;2.22;1.80;;;25.10;46.30;;;;;;5056185;28;20043;-61
2021/07/24 06:39:54;;;;;;;2.80;2.03;;;25.10;46.20;;;;;;5056269;28;20121;-61
2021/07/24 06:42:20;;;;;;;2.15;1.90;;;25.10;46.30;;;;;;5054171;28;20039;-60
2021/07/24 06:44:46;;;;;;;2.17;1.90;;;25.10;46.30;;;;;;5056009;28;20032;-61
2021/07/24 06:47:13;;;;;;;2.00;1.80;;;25.10;46.40;;;;;;5052967;28;20056;-59
2021/07/24 06:49:38;;;;;;;2.42;2.03;;;25.10;46.40;;;;;;5054392;28;20037;-59
2021/07/24 06:52:04;;;;;;;2.40;2.20;;;25.10;46.50;;;;;;5054360;28;20025;-60
2021/07/24 06:54:30;;;;;;;2.10;1.88;;;25.10;46.50;;;;;;5051555;28;20047;-62
2021/07/24 06:56:56;;;;;;;4.30;2.10;;;25.10;46.60;;;;;;5053041;28;20453;-60
2021/07/24 06:59:21;;;;;;;3.90;2.40;;;25.10;46.60;;;;;;5054301;28;20613;-58
2021/07/24 07:01:47;;;;;;;2.47;2.08;;;25.10;46.60;;;;;;5054843;28;20033;-61
2021/07/24 07:04:13;;;;;;;2.60;1.95;;;25.20;46.80;;;;;;5054248;28;20395;-58
2021/07/24 07:06:40;;;;;;;2.30;2.10;;;25.20;46.80;;;;;;5054828;28;20052;-60
2021/07/24 07:09:06;;;;;;;2.17;1.98;;;25.20;46.80;;;;;;5054266;28;20333;-60
2021/07/24 07:11:32;;;;;;;2.92;2.25;;;25.20;46.90;;;;;;5053099;28;20166;-60
2021/07/24 07:13:58;;;;;;;2.50;2.28;;;25.20;46.90;;;;;;5054670;28;20466;-60
2021/07/24 07:16:24;;;;;;;2.80;2.17;;;25.20;46.90;;;;;;5054219;28;20092;-58
2021/07/24 07:18:49;;;;;;;2.22;2.03;;;25.20;47.00;;;;;;5054839;28;20051;-58
2021/07/24 07:21:15;;;;;;;2.25;2.05;;;25.20;47.00;;;;;;5054429;28;20037;-60
2021/07/24 07:23:41;;;;;;;2.90;2.25;;;25.20;47.00;;;;;;5053743;28;20079;-60
2021/07/24 07:26:07;;;;;;;2.67;2.42;;;25.20;47.00;;;;;;5054408;28;20036;-58
2021/07/24 07:28:32;;;;;;;2.75;2.10;;;25.20;47.10;;;;;;5054084;28;20383;-60
2021/07/24 07:30:59;;;;;;;2.58;2.30;;;25.20;47.10;;;;;;5035463;28;20044;-59
2021/07/24 07:33:25;;;;;;;2.47;2.28;;;25.20;47.10;;;;;;5053904;28;20029;-58
2021/07/24 07:35:51;;;;;;;2.40;2.20;;;25.30;47.20;;;;;;5054222;28;20025;-59
2021/07/24 07:38:18;;;;;;;2.40;2.00;;;25.20;47.20;;;;;;5054544;28;20083;-60
2021/07/24 07:40:43;;;;;;;2.47;2.28;;;25.30;47.30;;;;;;5054016;28;20060;-60
2021/07/24 07:43:09;;;;;;;3.25;2.30;;;25.30;47.30;;;;;;5053685;28;20051;-61
2021/07/24 07:45:40;;;;;;;2.75;2.47;;;25.30;47.30;;;;;;5034625;28;20033;-60
2021/07/24 07:48:06;;;;;;;5.35;2.35;;;25.30;47.30;;;;;;5054289;28;20032;-58
2021/07/24 07:50:33;;;;;;;3.45;2.35;;;25.30;47.40;;;;;;5053280;28;20033;-56
2021/07/24 07:52:59;;;;;;;2.67;2.45;;;25.30;47.40;;;;;;5036039;28;20353;-58
2021/07/24 07:55:25;;;;;;;2.33;2.13;;;25.30;47.40;;;;;;5053532;28;20111;-60
2021/07/24 07:57:51;;;;;;;2.80;2.15;;;25.30;47.40;;;;;;5054127;28;20032;-60
2021/07/24 08:00:17;;;;;;;2.45;2.25;;;25.30;47.40;;;;;;5053811;28;20025;-61
2021/07/24 08:02:42;;;;;;;2.75;2.45;;;25.30;47.40;;;;;;5053067;28;20396;-61
2021/07/24 08:05:08;;;;;;;2.83;2.47;;;25.30;47.50;;;;;;5055135;28;20020;-59
2021/07/24 08:07:34;;;;;;;2.47;2.22;;;25.30;47.50;;;;;;5052742;28;20052;-60
2021/07/24 08:10:00;;;;;;;2.92;2.63;;;25.30;47.50;;;;;;5035660;28;20398;-60
2021/07/24 08:12:26;;;;;;;2.67;2.33;;;25.30;47.50;;;;;;5053367;28;20032;-60
2021/07/24 08:14:52;;;;;;;2.53;2.30;;;25.40;47.60;;;;;;5053308;28;20060;-62
2021/07/24 08:17:21;;;;;;;2.90;2.60;;;25.40;47.70;;;;;;5053012;28;20497;-60
2021/07/24 08:19:47;;;;;;;3.38;2.75;;;25.40;47.70;;;;;;5053685;28;20043;-59
2021/07/24 08:22:13;;;;;;;2.65;2.45;;;25.40;47.70;;;;;;5052946;28;20117;-61
2021/07/24 08:24:39;;;;;;;2.38;2.17;;;25.40;47.70;;;;;;5053216;28;20104;-60
2021/07/24 08:27:05;;;;;;;2.47;2.20;;;25.40;47.70;;;;;;5053381;28;20032;-58
2021/07/24 08:29:30;;;;;;;2.63;2.35;;;25.40;47.70;;;;;;5053285;28;20099;-60
2021/07/24 08:31:58;;;;;;;2.95;2.25;;;25.50;47.80;;;;;;5034650;28;20380;-64
2021/07/24 08:34:24;;;;;;;2.45;2.25;;;25.50;47.80;;;;;;5053573;28;20371;-63
2021/07/24 08:36:49;;;;;;;2.60;2.33;;;25.50;47.90;;;;;;5053464;28;20105;-61
2021/07/24 08:39:15;;;;;;;2.80;2.60;;;25.50;47.90;;;;;;5052236;28;20123;-62
2021/07/24 08:41:42;;;;;;;3.20;2.75;;;25.50;48.00;;;;;;5049605;28;20024;-61
2021/07/24 08:44:11;;;;;;;2.90;2.45;;;25.50;48.00;;;;;;5053042;28;20028;-60
2021/07/24 08:46:38;;;;;;;2.58;2.38;;;25.60;48.10;;;;;;5053194;28;20044;-62
2021/07/24 08:49:04;;;;;;;3.53;2.88;;;25.60;48.10;;;;;;5052153;28;20051;-57
2021/07/24 08:51:34;;;;;;;3.22;2.83;;;25.60;48.10;;;;;;5052798;28;20036;-57
2021/07/24 08:54:00;;;;;;;3.97;2.72;;;25.60;48.20;;;;;;5052540;28;20033;-56
2021/07/24 08:56:30;;;;;;;3.10;2.80;;;25.60;48.20;;;;;;5051364;28;20052;-58
2021/07/24 08:58:59;;;;;;;4.45;2.33;;;25.70;48.30;;;;;;5050493;28;20017;-61
2021/07/24 09:01:25;;;;;;;2.88;2.40;;;25.70;48.20;;;;;;5050588;28;20082;-60
2021/07/24 09:03:54;;;;;;;3.38;3.08;;;25.80;48.30;;;;;;5051921;28;20033;-59
2021/07/24 09:06:23;;;;;;;2.78;2.50;;;25.80;48.30;;;;;;5052890;28;20025;-62
2021/07/24 09:08:51;;;;;;;3.05;2.78;;;25.80;48.30;;;;;;5052184;28;20113;-60
2021/07/24 09:11:18;;;;;;;2.97;2.65;;;25.80;48.30;;;;;;5051669;28;20451;-58
2021/07/24 09:13:44;;;;;;;2.53;2.33;;;25.80;48.30;;;;;;5052267;28;20025;-60
2021/07/24 09:16:10;;;;;;;2.55;2.35;;;25.90;48.40;;;;;;5052462;28;20025;-61
2021/07/24 09:18:37;;;;;;;2.83;2.55;;;25.90;49.00;;;;;;5047447;28;20016;-60
2021/07/24 09:21:04;;;;;;;3.10;2.40;;;25.90;48.40;;;;;;5049840;28;20048;-61
2021/07/24 09:23:39;;;;;;;3.08;2.50;;;25.90;48.40;;;;;;5052017;28;20063;-59
2021/07/24 09:26:06;;;;;;;2.72;2.53;;;25.90;48.50;;;;;;5047065;28;20412;-61
2021/07/24 09:28:33;;;;;;;4.03;2.83;;;25.90;48.40;;;;;;5049135;28;20082;-60
2021/07/24 09:31:19;;;;;;;2.92;2.38;;;25.90;48.50;;;;;;5050652;28;20056;-58
2021/07/24 09:33:54;;;;;;;2.80;2.60;;;26.00;48.50;;;;;;5051521;28;20024;-61
2021/07/24 09:36:36;;;;;;;3.15;2.70;;;26.00;48.60;;;;;;5052804;28;20108;-61
2021/07/24 09:39:11;;;;;;;3.20;2.90;;;26.00;48.60;;;;;;5049003;28;20036;-61
2021/07/24 09:41:42;;;;;;;3.00;2.70;;;26.00;49.20;;;;;;5051451;28;20032;-59
2021/07/24 09:44:09;;;;;;;2.65;2.45;;;26.00;48.60;;;;;;5050509;28;20100;-60
2021/07/24 09:46:39;;;;;;;3.63;3.05;;;26.00;48.50;;;;;;5033068;28;20423;-63
2021/07/24 09:49:14;;;;;;;3.58;3.05;;;26.00;48.50;;;;;;5050935;28;20039;-60
2021/07/24 09:51:45;;;;;;;3.13;2.83;;;26.00;48.50;;;;;;5051657;28;20099;-57
2021/07/24 09:54:28;;;;;;;3.33;3.03;;;26.00;48.50;;;;;;5051974;28;20021;-61
2021/07/24 09:56:56;;;;;;;3.78;3.25;;;26.10;48.60;;;;;;5052557;28;20029;-62
2021/07/24 09:59:32;;;;;;;3.30;3.00;;;26.00;48.60;;;;;;5051585;28;20116;-62
2021/07/24 10:02:00;;;;;;;4.10;3.05;;;26.10;48.90;;;;;;5035160;28;20029;-61
2021/07/24 10:04:33;;;;;;;4.38;3.15;;;26.10;49.00;;;;;;5052191;28;20033;-61
2021/07/24 10:07:01;;;;;;;3.30;3.00;;;26.10;49.10;;;;;;5053112;28;20376;-56
2021/07/24 10:09:29;;;;;;;3.72;2.97;;;26.10;49.10;;;;;;5052003;28;20084;-64
2021/07/24 10:11:58;;;;;;;3.80;3.30;;;26.10;49.20;;;;;;5052493;28;20033;-54
2021/07/24 10:14:25;;;;;;;3.95;3.28;;;26.20;49.50;;;;;;5049047;28;20061;-62
2021/07/24 10:16:53;;;;;;;3.83;3.35;;;26.20;49.40;;;;;;5052963;28;20025;-60
2021/07/24 10:19:20;;;;;;;3.65;3.20;;;26.20;49.40;;;;;;5051568;28;20033;-57
2021/07/24 10:21:47;;;;;;;3.30;3.00;;;26.20;49.40;;;;;;5048530;28;20380;-59
2021/07/24 10:24:14;;;;;;;3.47;3.17;;;26.30;49.50;;;;;;5050607;28;20033;-59
2021/07/24 10:27:04;;;;;;;3.60;3.20;;;26.30;49.50;;;;;;5052136;28;20044;-57
2021/07/24 10:29:42;;;;;;;3.97;3.58;;;26.30;49.60;;;;;;5051325;28;20139;-52
2021/07/24 10:32:10;;;;;;;4.47;4.07;;;26.30;49.60;;;;;;5051961;28;20088;-56
2021/07/24 10:34:47;;;;;;;4.57;4.07;;;26.20;49.20;;;;;;5052060;28;20405;-58
2021/07/24 10:37:33;;;;;;;4.07;3.67;;;26.00;49.90;;;;;;5051552;28;20116;-60
2021/07/24 10:40:20;;;;;;;4.45;3.70;;;25.90;49.70;;;;;;5050751;28;20818;-56
2021/07/24 10:42:55;;;;;;;3.95;3.55;;;25.70;50.00;;;;;;5050823;28;20028;-53
2021/07/24 10:45:45;;;;;;;3.42;3.13;;;25.60;50.20;;;;;;5052167;28;20056;-58
2021/07/24 10:48:14;;;;;;;3.10;2.80;;;25.60;49.80;;;;;;5033855;28;20068;-57
2021/07/24 10:50:58;;;;;;;3.95;3.55;;;25.60;49.80;;;;;;5052000;28;20052;-62
2021/07/24 10:54:01;;;;;;;3.40;3.08;;;25.60;51.00;;;;;;5050792;28;20048;-56
2021/07/24 10:56:39;;;;;;;3.58;3.28;;;25.50;50.40;;;;;;5051809;28;20468;-63
2021/07/24 10:59:14;;;;;;;8.52;5.20;;;25.50;50.50;;;;;;5047106;28;20033;-60
2021/07/24 11:01:47;;;;;;;8.50;5.05;;;25.60;49.80;;;;;;5050769;28;20029;-60
2021/07/24 11:04:38;;;;;;;8.07;4.80;;;25.60;50.20;;;;;;5053300;28;20035;-61
2021/07/24 11:07:13;;;;;;;6.03;4.22;;;25.50;50.60;;;;;;5051671;28;20031;-59
2021/07/24 11:09:40;;;;;;;7.55;4.70;;;25.60;50.70;;;;;;5054653;28;20101;-61
2021/07/24 11:12:09;;;;;;;5.38;4.40;;;25.60;50.80;;;;;;5053012;28;20056;-62
2021/07/24 11:14:42;;;;;;;5.47;4.00;;;25.60;50.00;;;;;;5052609;28;20029;-61
2021/07/24 11:17:08;;;;;;;4.80;3.90;;;25.50;50.60;;;;;;5051768;28;20027;-60
2021/07/24 11:19:35;;;;;;;5.45;4.15;;;25.50;51.00;;;;;;5053383;28;20044;-58
2021/07/24 11:22:07;;;;;;;6.72;4.45;;;25.60;51.20;;;;;;5053894;28;20032;-69
2021/07/24 11:24:33;;;;;;;4.80;4.03;;;25.60;50.60;;;;;;5053499;28;20353;-58
2021/07/24 11:27:02;;;;;;;4.35;3.55;;;25.60;50.40;;;;;;5054018;28;20033;-61
2021/07/24 11:29:27;;;;;;;4.57;3.30;;;25.60;51.10;;;;;;5053002;28;20693;-62
2021/07/24 11:31:54;;;;;;;4.28;3.22;;;25.60;51.20;;;;;;5053156;28;20033;-63
2021/07/24 11:34:26;;;;;;;5.55;3.90;;;25.60;51.20;;;;;;5053705;28;20033;-62
2021/07/24 11:36:51;;;;;;;4.45;3.60;;;25.60;50.60;;;;;;5051364;28;20183;-60
2021/07/24 11:39:32;;;;;;;5.35;3.42;;;25.60;50.10;;;;;;5053474;28;20504;-61
2021/07/24 11:41:58;;;;;;;3.90;3.50;;;25.50;50.90;;;;;;5050388;28;20028;-64
2021/07/24 11:44:24;;;;;;;4.47;3.80;;;25.50;51.10;;;;;;5051740;28;20029;-62
2021/07/24 11:47:00;;;;;;;4.05;3.65;;;25.50;51.20;;;;;;5051555;28;20035;-63
2021/07/24 11:49:27;;;;;;;3.67;3.13;;;25.50;51.30;;;;;;5052150;28;20025;-62
2021/07/24 11:51:54;;;;;;;7.32;3.92;;;25.60;50.70;;;;;;5032890;28;20087;-62
2021/07/24 11:54:49;;;;;;;4.13;3.33;;;25.50;50.90;;;;;;5029433;28;20114;-61
2021/07/24 11:57:27;;;;;;;4.32;3.70;;;25.40;51.50;;;;;;5049464;28;20143;-61
2021/07/24 11:59:53;;;;;;;3.90;3.50;;;25.40;51.70;;;;;;5052312;28;20033;-62
2021/07/24 12:02:20;;;;;;;4.22;3.63;;;25.40;51.60;;;;;;5051433;28;20456;-63
2021/07/24 12:04:50;;;;;;;3.42;2.92;;;25.50;51.40;;;;;;5051920;28;20356;-61
2021/07/24 12:07:17;;;;;;;3.10;2.78;;;25.50;51.20;;;;;;5035023;28;20455;-61
2021/07/24 12:09:44;;;;;;;3.40;3.10;;;25.60;51.20;;;;;;5033748;28;20078;-64
2021/07/24 12:12:10;;;;;;;3.17;2.88;;;25.60;50.90;;;;;;5047111;28;20118;-63
2021/07/24 12:14:36;;;;;;;3.97;2.90;;;25.60;50.60;;;;;;5050184;28;20036;-62
2021/07/24 12:17:10;;;;;;;4.28;3.50;;;25.60;51.10;;;;;;5050756;28;20091;-63
2021/07/24 12:19:45;;;;;;;4.10;3.50;;;25.60;51.40;;;;;;5052522;28;20031;-62
2021/07/24 12:22:13;;;;;;;3.72;3.20;;;25.60;51.50;;;;;;5052113;28;20025;-61
2021/07/24 12:24:39;;;;;;;3.55;2.90;;;25.60;51.30;;;;;;5048459;28;20083;-64
2021/07/24 12:27:11;;;;;;;4.20;3.15;;;25.60;51.10;;;;;;5051895;28;20036;-63
2021/07/24 12:29:58;;;;;;;4.95;3.13;;;25.60;51.10;;;;;;5033875;28;20381;-62
2021/07/24 12:32:37;;;;;;;4.28;3.63;;;25.50;51.50;;;;;;5048836;28;20207;-63
2021/07/24 12:35:16;;;;;;;4.10;3.60;;;25.50;51.90;;;;;;5048990;28;20045;-63
2021/07/24 12:37:42;;;;;;;4.07;3.50;;;25.50;51.90;;;;;;5048680;28;20082;-65
2021/07/24 12:40:15;;;;;;;3.58;3.28;;;25.60;51.80;;;;;;5051443;28;20039;-63
2021/07/24 12:42:41;;;;;;;4.15;3.60;;;25.60;51.60;;;;;;5033402;28;20033;-64
2021/07/24 12:45:20;;;;;;;4.43;3.33;;;25.50;51.40;;;;;;5050304;28;20041;-62
2021/07/24 12:47:46;;;;;;;3.75;3.35;;;25.60;51.20;;;;;;5050539;28;20036;-65
2021/07/24 12:50:14;;;;;;;4.45;3.70;;;25.50;51.50;;;;;;5050379;28;20029;-61
2021/07/24 12:52:52;;;;;;;4.20;3.80;;;25.40;51.90;;;;;;5048287;28;20040;-66
2021/07/24 12:55:24;;;;;;;4.75;3.63;;;25.40;52.40;;;;;;5046952;28;20025;-62
2021/07/24 12:57:51;;;;;;;4.25;3.80;;;25.50;52.50;;;;;;5051583;28;20456;-64
2021/07/24 13:00:20;;;;;;;4.88;4.18;;;25.50;52.30;;;;;;5048575;28;20463;-63